createdAt,value
2018-04-30T00:00:57.439Z,999.13
2018-04-30T00:01:57.440Z,999.11
2018-04-30T00:02:57.440Z,999.11
2018-04-30T00:03:57.439Z,999.03
2018-04-30T00:04:57.434Z,999.03
2018-04-30T00:05:57.444Z,999.01
2018-04-30T00:06:57.435Z,998.97
2018-04-30T00:07:57.437Z,998.97
2018-04-30T00:08:57.433Z,998.95
2018-04-30T00:09:57.430Z,998.91
2018-04-30T00:10:57.432Z,998.92
2018-04-30T00:11:57.436Z,998.85
2018-04-30T00:12:57.430Z,998.84
2018-04-30T00:13:57.431Z,998.86
2018-04-30T00:14:57.433Z,998.81
2018-04-30T00:15:57.426Z,998.76
2018-04-30T00:16:57.430Z,998.76
2018-04-30T00:17:57.428Z,998.75
2018-04-30T00:18:57.426Z,998.77
2018-04-30T00:19:57.424Z,998.70
2018-04-30T00:20:57.425Z,998.71
2018-04-30T00:21:57.422Z,998.66
2018-04-30T00:22:57.465Z,998.63
2018-04-30T00:23:57.422Z,998.62
2018-04-30T00:24:57.420Z,998.58
2018-04-30T00:25:57.420Z,998.58
2018-04-30T00:26:57.419Z,998.56
2018-04-30T00:27:57.417Z,998.55
2018-04-30T00:28:57.415Z,998.54
2018-04-30T00:29:57.416Z,998.49
2018-04-30T00:30:57.415Z,998.48
2018-04-30T00:31:57.412Z,998.45
2018-04-30T00:32:57.415Z,998.42
2018-04-30T00:33:57.413Z,998.45
2018-04-30T00:34:57.410Z,998.48
2018-04-30T00:35:57.409Z,998.48
2018-04-30T00:36:57.405Z,998.40
2018-04-30T00:37:57.407Z,998.40
2018-04-30T00:38:57.407Z,998.35
2018-04-30T00:39:57.406Z,998.36
2018-04-30T00:40:57.404Z,998.34
2018-04-30T00:41:57.405Z,998.35
2018-04-30T00:42:57.403Z,998.37
2018-04-30T00:43:57.406Z,998.33
2018-04-30T00:44:57.405Z,998.35
2018-04-30T00:45:57.400Z,998.34
2018-04-30T00:46:57.399Z,998.33
2018-04-30T00:47:57.397Z,998.33
2018-04-30T00:48:57.397Z,998.32
2018-04-30T00:49:57.396Z,998.36
2018-04-30T00:50:57.395Z,998.28
2018-04-30T00:51:57.392Z,998.33
2018-04-30T00:52:57.397Z,998.37
2018-04-30T00:53:57.396Z,998.30
2018-04-30T00:54:57.391Z,998.29
2018-04-30T00:55:57.389Z,998.23
2018-04-30T00:56:57.399Z,998.27
2018-04-30T00:57:57.390Z,998.26
2018-04-30T00:58:57.385Z,998.27
2018-04-30T00:59:57.389Z,998.26
2018-04-30T01:00:57.385Z,998.28
2018-04-30T01:01:57.383Z,998.26
2018-04-30T01:02:57.381Z,998.19
2018-04-30T01:03:57.379Z,998.20
2018-04-30T01:04:57.384Z,998.19
2018-04-30T01:05:57.381Z,998.17
2018-04-30T01:06:57.381Z,998.14
2018-04-30T01:07:57.378Z,998.13
2018-04-30T01:08:57.378Z,998.12
2018-04-30T01:09:57.378Z,998.05
2018-04-30T01:10:57.377Z,998.01
2018-04-30T01:11:57.376Z,998.01
2018-04-30T01:12:57.372Z,997.96
2018-04-30T01:13:57.374Z,997.99
2018-04-30T01:14:57.372Z,997.92
2018-04-30T01:15:57.367Z,997.90
2018-04-30T01:16:57.372Z,997.91
2018-04-30T01:17:57.369Z,997.90
2018-04-30T01:18:57.367Z,997.86
2018-04-30T01:19:57.365Z,997.83
2018-04-30T01:20:57.366Z,997.82
2018-04-30T01:21:57.365Z,997.79
2018-04-30T01:22:57.362Z,997.81
2018-04-30T01:23:57.363Z,997.80
2018-04-30T01:24:57.366Z,997.73
2018-04-30T01:25:57.359Z,997.74
2018-04-30T01:26:57.359Z,997.69
2018-04-30T01:27:57.359Z,997.67
2018-04-30T01:28:57.358Z,997.66
2018-04-30T01:29:57.355Z,997.68
2018-04-30T01:30:57.352Z,997.63
2018-04-30T01:31:57.354Z,997.73
2018-04-30T01:32:57.352Z,997.73
2018-04-30T01:33:57.351Z,997.72
2018-04-30T01:34:57.351Z,997.74
2018-04-30T01:35:57.349Z,997.69
2018-04-30T01:36:57.349Z,997.67
2018-04-30T01:37:57.358Z,997.68
2018-04-30T01:38:57.343Z,997.65
2018-04-30T01:39:57.344Z,997.61
2018-04-30T01:40:57.343Z,997.61
2018-04-30T01:41:57.344Z,997.59
2018-04-30T01:42:57.337Z,997.64
2018-04-30T01:43:57.341Z,997.65
2018-04-30T01:44:57.341Z,997.58
2018-04-30T01:45:57.337Z,997.55
2018-04-30T01:46:57.336Z,997.53
2018-04-30T01:47:57.336Z,997.53
2018-04-30T01:48:57.335Z,997.50
2018-04-30T01:49:57.335Z,997.51
2018-04-30T01:50:57.333Z,997.50
2018-04-30T01:51:57.329Z,997.48
2018-04-30T01:52:57.331Z,997.47
2018-04-30T01:53:57.330Z,997.48
2018-04-30T01:54:57.330Z,997.49
2018-04-30T01:55:57.329Z,997.45
2018-04-30T01:56:57.325Z,997.44
2018-04-30T01:57:57.326Z,997.44
2018-04-30T01:58:57.322Z,997.42
2018-04-30T01:59:57.323Z,997.38
2018-04-30T02:00:57.322Z,997.40
2018-04-30T02:01:57.322Z,997.35
2018-04-30T02:02:57.320Z,997.34
2018-04-30T02:03:57.318Z,997.30
2018-04-30T02:04:57.314Z,997.22
2018-04-30T02:05:57.317Z,997.18
2018-04-30T02:06:57.315Z,997.23
2018-04-30T02:07:57.313Z,997.18
2018-04-30T02:08:57.310Z,997.19
2018-04-30T02:09:57.312Z,997.14
2018-04-30T02:10:57.309Z,997.09
2018-04-30T02:11:57.310Z,997.07
2018-04-30T02:12:57.308Z,997.07
2018-04-30T02:13:57.306Z,997.06
2018-04-30T02:14:57.304Z,997.05
2018-04-30T02:15:57.306Z,997.05
2018-04-30T02:16:57.305Z,996.97
2018-04-30T02:17:57.303Z,996.88
2018-04-30T02:18:57.300Z,996.90
2018-04-30T02:19:57.299Z,996.87
2018-04-30T02:20:57.304Z,996.91
2018-04-30T02:21:57.297Z,996.87
2018-04-30T02:22:57.294Z,996.77
2018-04-30T02:23:57.298Z,996.76
2018-04-30T02:24:57.293Z,996.84
2018-04-30T02:25:57.293Z,996.67
2018-04-30T02:26:57.290Z,996.67
2018-04-30T02:27:57.292Z,996.68
2018-04-30T02:28:57.288Z,996.58
2018-04-30T02:29:57.293Z,996.66
2018-04-30T02:30:57.289Z,996.59
2018-04-30T02:31:57.288Z,996.60
2018-04-30T02:32:57.282Z,996.48
2018-04-30T02:33:57.283Z,996.48
2018-04-30T02:34:57.281Z,996.54
2018-04-30T02:35:57.278Z,996.42
2018-04-30T02:36:57.282Z,996.42
2018-04-30T02:37:57.275Z,996.41
2018-04-30T02:38:57.274Z,996.41
2018-04-30T02:39:57.272Z,996.35
2018-04-30T02:40:57.278Z,996.37
2018-04-30T02:41:57.275Z,996.28
2018-04-30T02:42:57.268Z,996.28
2018-04-30T02:43:57.268Z,996.25
2018-04-30T02:44:57.268Z,996.19
2018-04-30T02:45:57.265Z,996.24
2018-04-30T02:46:57.260Z,996.13
2018-04-30T02:47:57.264Z,996.13
2018-04-30T02:48:57.261Z,996.12
2018-04-30T02:49:57.260Z,996.16
2018-04-30T02:50:57.260Z,996.11
2018-04-30T02:51:57.256Z,996.15
2018-04-30T02:52:57.257Z,996.05
2018-04-30T02:53:57.259Z,996.05
2018-04-30T02:54:57.257Z,996.04
2018-04-30T02:55:57.252Z,995.99
2018-04-30T02:56:57.248Z,995.99
2018-04-30T02:57:57.252Z,996.00
2018-04-30T02:58:57.247Z,996.01
2018-04-30T02:59:57.246Z,995.98
2018-04-30T03:00:57.244Z,995.96
2018-04-30T03:01:57.253Z,995.95
2018-04-30T03:02:57.245Z,995.93
2018-04-30T03:03:57.244Z,995.92
2018-04-30T03:04:57.239Z,995.98
2018-04-30T03:05:57.239Z,995.97
2018-04-30T03:06:57.241Z,995.95
2018-04-30T03:07:57.238Z,996.00
2018-04-30T03:08:57.236Z,995.95
2018-04-30T03:09:57.235Z,995.93
2018-04-30T03:10:57.233Z,995.87
2018-04-30T03:11:57.236Z,995.81
2018-04-30T03:12:57.228Z,995.78
2018-04-30T03:13:57.228Z,995.72
2018-04-30T03:14:57.229Z,995.68
2018-04-30T03:15:57.310Z,995.67
2018-04-30T03:16:57.232Z,995.64
2018-04-30T03:17:57.225Z,995.64
2018-04-30T03:18:57.225Z,995.67
2018-04-30T03:19:57.223Z,995.61
2018-04-30T03:20:57.229Z,995.66
2018-04-30T03:21:57.219Z,995.67
2018-04-30T03:22:57.217Z,995.60
2018-04-30T03:23:57.218Z,995.67
2018-04-30T03:24:57.215Z,995.66
2018-04-30T03:25:57.219Z,995.59
2018-04-30T03:26:57.214Z,995.63
2018-04-30T03:27:57.210Z,995.61
2018-04-30T03:28:57.210Z,995.57
2018-04-30T03:29:57.205Z,995.64
2018-04-30T03:30:57.207Z,995.59
2018-04-30T03:31:57.208Z,995.58
2018-04-30T03:32:57.207Z,995.56
2018-04-30T03:33:57.207Z,995.57
2018-04-30T03:34:57.201Z,995.59
2018-04-30T03:35:57.200Z,995.54
2018-04-30T03:36:57.198Z,995.59
2018-04-30T03:37:57.198Z,995.57
2018-04-30T03:38:57.196Z,995.50
2018-04-30T03:39:57.194Z,995.47
2018-04-30T03:40:57.244Z,995.51
2018-04-30T03:41:57.192Z,995.50
2018-04-30T03:42:57.190Z,995.45
2018-04-30T03:43:57.195Z,995.47
2018-04-30T03:44:57.187Z,995.43
2018-04-30T03:45:57.187Z,995.42
2018-04-30T03:46:57.185Z,995.36
2018-04-30T03:47:57.181Z,995.33
2018-04-30T03:48:57.181Z,995.36
2018-04-30T03:49:57.180Z,995.35
2018-04-30T03:50:57.175Z,995.32
2018-04-30T03:51:57.177Z,995.33
2018-04-30T03:52:57.182Z,995.33
2018-04-30T03:53:57.178Z,995.28
2018-04-30T03:54:57.171Z,995.32
2018-04-30T03:55:57.170Z,995.26
2018-04-30T03:56:57.170Z,995.32
2018-04-30T03:57:57.167Z,995.22
2018-04-30T03:58:57.171Z,995.30
2018-04-30T03:59:57.164Z,995.18
2018-04-30T04:00:57.159Z,995.21
2018-04-30T04:01:57.165Z,995.18
2018-04-30T04:02:57.183Z,995.18
2018-04-30T04:03:57.157Z,995.21
2018-04-30T04:04:57.158Z,995.17
2018-04-30T04:05:57.154Z,995.18
2018-04-30T04:06:57.159Z,995.20
2018-04-30T04:07:57.150Z,995.22
2018-04-30T04:08:57.151Z,995.16
2018-04-30T04:09:57.148Z,995.24
2018-04-30T04:10:57.143Z,995.19
2018-04-30T04:11:57.145Z,995.24
2018-04-30T04:12:57.138Z,995.28
2018-04-30T04:13:57.142Z,995.22
2018-04-30T04:14:57.141Z,995.19
2018-04-30T04:15:57.139Z,995.23
2018-04-30T04:16:57.135Z,995.22
2018-04-30T04:17:57.134Z,995.21
2018-04-30T04:18:57.133Z,995.16
2018-04-30T04:19:57.130Z,995.19
2018-04-30T04:20:57.129Z,995.12
2018-04-30T04:21:57.127Z,995.14
2018-04-30T04:22:57.131Z,995.20
2018-04-30T04:23:57.131Z,995.18
2018-04-30T04:24:57.124Z,995.15
2018-04-30T04:25:57.123Z,995.10
2018-04-30T04:26:57.118Z,995.13
2018-04-30T04:27:57.116Z,995.16
2018-04-30T04:28:57.116Z,995.16
2018-04-30T04:29:57.115Z,995.12
2018-04-30T04:30:57.113Z,995.12
2018-04-30T04:31:57.116Z,995.10
2018-04-30T04:32:57.112Z,995.04
2018-04-30T04:33:57.108Z,995.06
2018-04-30T04:34:57.108Z,995.07
2018-04-30T04:35:57.106Z,995.09
2018-04-30T04:36:57.104Z,995.06
2018-04-30T04:37:57.104Z,995.08
2018-04-30T04:38:57.100Z,995.06
2018-04-30T04:39:57.095Z,995.07
2018-04-30T04:40:57.100Z,994.98
2018-04-30T04:41:57.095Z,994.96
2018-04-30T04:42:57.090Z,994.99
2018-04-30T04:43:57.093Z,995.01
2018-04-30T04:44:57.091Z,994.96
2018-04-30T04:45:57.090Z,994.98
2018-04-30T04:46:57.086Z,995.03
2018-04-30T04:47:57.089Z,994.96
2018-04-30T04:48:57.085Z,994.88
2018-04-30T04:49:57.084Z,994.89
2018-04-30T04:50:57.087Z,994.93
2018-04-30T04:51:57.080Z,994.92
2018-04-30T04:52:57.079Z,994.90
2018-04-30T04:53:57.077Z,994.86
2018-04-30T04:54:57.076Z,994.86
2018-04-30T04:55:57.078Z,994.80
2018-04-30T04:56:57.072Z,994.80
2018-04-30T04:57:57.071Z,994.78
2018-04-30T04:58:57.069Z,994.83
2018-04-30T04:59:57.071Z,994.82
2018-04-30T05:00:57.069Z,994.86
2018-04-30T05:01:57.072Z,994.89
2018-04-30T05:02:57.065Z,994.94
2018-04-30T05:03:57.062Z,994.99
2018-04-30T05:04:57.064Z,995.03
2018-04-30T05:05:57.063Z,995.05
2018-04-30T05:06:57.060Z,994.97
2018-04-30T05:07:57.061Z,995.07
2018-04-30T05:08:57.058Z,995.00
2018-04-30T05:09:57.060Z,994.99
2018-04-30T05:10:57.102Z,994.88
2018-04-30T05:11:57.056Z,994.83
2018-04-30T05:12:57.058Z,994.79
2018-04-30T05:13:57.056Z,994.73
2018-04-30T05:14:57.054Z,994.77
2018-04-30T05:15:57.052Z,994.72
2018-04-30T05:16:57.053Z,994.74
2018-04-30T05:17:57.050Z,994.66
2018-04-30T05:18:57.048Z,994.74
2018-04-30T05:19:57.049Z,994.71
2018-04-30T05:20:57.073Z,994.66
2018-04-30T05:21:57.047Z,994.67
2018-04-30T05:22:57.048Z,994.67
2018-04-30T05:23:57.046Z,994.60
2018-04-30T05:24:57.048Z,994.63
2018-04-30T05:25:57.046Z,994.54
2018-04-30T05:26:57.056Z,994.50
2018-04-30T05:27:57.045Z,994.51
2018-04-30T05:28:57.044Z,994.52
2018-04-30T05:29:57.044Z,994.61
2018-04-30T05:30:57.046Z,994.63
2018-04-30T05:31:57.047Z,994.61
2018-04-30T05:32:57.043Z,994.61
2018-04-30T05:33:57.124Z,994.65
2018-04-30T05:34:57.040Z,994.66
2018-04-30T05:35:57.041Z,994.65
2018-04-30T05:36:57.040Z,994.70
2018-04-30T05:37:57.044Z,994.73
2018-04-30T05:38:57.040Z,994.74
2018-04-30T05:39:57.039Z,994.69
2018-04-30T05:40:57.047Z,994.64
2018-04-30T05:41:57.043Z,994.62
2018-04-30T05:42:57.038Z,994.53
2018-04-30T05:43:57.040Z,994.57
2018-04-30T05:44:57.039Z,994.57
2018-04-30T05:45:57.042Z,994.60
2018-04-30T05:46:57.046Z,994.58
2018-04-30T05:47:57.085Z,994.56
2018-04-30T05:48:57.047Z,994.55
2018-04-30T05:49:57.043Z,994.56
2018-04-30T05:50:57.040Z,994.59
2018-04-30T05:51:57.043Z,994.57
2018-04-30T05:52:57.047Z,994.59
2018-04-30T05:53:57.047Z,994.53
2018-04-30T05:54:57.047Z,994.48
2018-04-30T05:55:57.047Z,994.46
2018-04-30T05:56:57.045Z,994.46
2018-04-30T05:57:57.053Z,994.40
2018-04-30T05:58:57.049Z,994.42
2018-04-30T05:59:57.106Z,994.40
2018-04-30T06:00:57.051Z,994.33
2018-04-30T06:01:57.054Z,994.42
2018-04-30T06:02:57.053Z,994.36
2018-04-30T06:03:57.055Z,994.25
2018-04-30T06:04:57.057Z,994.21
2018-04-30T06:05:57.056Z,994.19
2018-04-30T06:06:57.057Z,994.20
2018-04-30T06:07:57.059Z,994.18
2018-04-30T06:08:57.059Z,994.28
2018-04-30T06:09:57.062Z,994.26
2018-04-30T06:10:57.070Z,994.30
2018-04-30T06:11:57.065Z,994.25
2018-04-30T06:12:57.065Z,994.26
2018-04-30T06:13:57.066Z,994.25
2018-04-30T06:14:57.067Z,994.26
2018-04-30T06:15:57.071Z,994.22
2018-04-30T06:16:57.076Z,994.12
2018-04-30T06:17:57.071Z,994.19
2018-04-30T06:18:57.069Z,994.13
2018-04-30T06:19:57.074Z,994.06
2018-04-30T06:20:57.073Z,994.06
2018-04-30T06:21:57.077Z,994.11
2018-04-30T06:22:57.078Z,994.11
2018-04-30T06:23:57.076Z,994.04
2018-04-30T06:24:57.080Z,994.08
2018-04-30T06:25:57.082Z,993.96
2018-04-30T06:26:57.140Z,993.97
2018-04-30T06:27:57.084Z,993.96
2018-04-30T06:28:57.085Z,993.89
2018-04-30T06:29:57.087Z,993.91
2018-04-30T06:30:57.093Z,993.95
2018-04-30T06:31:57.091Z,993.94
2018-04-30T06:32:57.093Z,993.80
2018-04-30T06:33:57.096Z,993.86
2018-04-30T06:34:57.095Z,993.81
2018-04-30T06:35:57.103Z,993.78
2018-04-30T06:36:57.093Z,993.73
2018-04-30T06:37:57.100Z,993.74
2018-04-30T06:38:57.109Z,993.77
2018-04-30T06:39:57.102Z,993.81
2018-04-30T06:40:57.109Z,993.79
2018-04-30T06:41:57.108Z,993.77
2018-04-30T06:42:57.111Z,993.75
2018-04-30T06:43:57.108Z,993.74
2018-04-30T06:44:57.112Z,993.73
2018-04-30T06:45:57.123Z,993.78
2018-04-30T06:46:57.121Z,993.80
2018-04-30T06:47:57.122Z,993.76
2018-04-30T06:48:57.126Z,993.83
2018-04-30T06:49:57.128Z,993.79
2018-04-30T06:50:57.194Z,993.78
2018-04-30T06:51:57.134Z,993.78
2018-04-30T06:52:57.138Z,993.75
2018-04-30T06:53:57.140Z,993.79
2018-04-30T06:54:57.142Z,993.80
2018-04-30T06:55:57.145Z,993.80
2018-04-30T06:56:57.150Z,993.75
2018-04-30T06:57:57.157Z,993.71
2018-04-30T06:58:57.156Z,993.66
2018-04-30T06:59:57.163Z,993.63
2018-04-30T07:00:57.164Z,993.66
2018-04-30T07:01:57.175Z,993.59
2018-04-30T07:02:57.165Z,993.57
2018-04-30T07:03:57.176Z,993.51
2018-04-30T07:04:57.183Z,993.47
2018-04-30T07:05:57.185Z,993.51
2018-04-30T07:06:57.187Z,993.52
2018-04-30T07:07:57.191Z,993.50
2018-04-30T07:08:57.199Z,993.50
2018-04-30T07:09:57.202Z,993.53
2018-04-30T07:10:57.208Z,993.55
2018-04-30T07:11:57.211Z,993.49
2018-04-30T07:12:57.217Z,993.50
2018-04-30T07:13:57.222Z,993.48
2018-04-30T07:14:57.224Z,993.51
2018-04-30T07:15:57.230Z,993.51
2018-04-30T07:16:57.236Z,993.44
2018-04-30T07:17:57.240Z,993.41
2018-04-30T07:18:57.251Z,993.33
2018-04-30T07:19:57.249Z,993.27
2018-04-30T07:20:57.255Z,993.35
2018-04-30T07:21:57.261Z,993.29
2018-04-30T07:22:57.264Z,993.28
2018-04-30T07:23:57.279Z,993.31
2018-04-30T07:24:57.280Z,993.37
2018-04-30T07:25:57.283Z,993.31
2018-04-30T07:26:57.325Z,993.33
2018-04-30T07:27:57.295Z,993.39
2018-04-30T07:28:57.298Z,993.48
2018-04-30T07:29:57.305Z,993.46
2018-04-30T07:30:57.311Z,993.46
2018-04-30T07:31:57.319Z,993.44
2018-04-30T07:32:57.324Z,993.43
2018-04-30T07:33:57.329Z,993.46
2018-04-30T07:34:57.335Z,993.46
2018-04-30T07:35:57.341Z,993.50
2018-04-30T07:36:57.349Z,993.53
2018-04-30T07:37:57.354Z,993.44
2018-04-30T07:38:57.367Z,993.40
2018-04-30T07:39:57.367Z,993.40
2018-04-30T07:40:57.374Z,993.41
2018-04-30T07:41:57.382Z,993.35
2018-04-30T07:42:57.387Z,993.32
2018-04-30T07:43:57.396Z,993.36
2018-04-30T07:44:57.402Z,993.35
2018-04-30T07:45:57.417Z,993.34
2018-04-30T07:46:57.418Z,993.32
2018-04-30T07:47:57.423Z,993.27
2018-04-30T07:48:57.438Z,993.26
2018-04-30T07:49:57.472Z,993.28
2018-04-30T07:50:57.447Z,993.23
2018-04-30T07:51:57.459Z,993.22
2018-04-30T07:52:57.565Z,993.22
2018-04-30T07:53:57.469Z,993.27
2018-04-30T07:54:57.475Z,993.30
2018-04-30T07:55:57.482Z,993.35
2018-04-30T07:56:57.495Z,993.34
2018-04-30T07:57:57.510Z,993.33
2018-04-30T07:58:57.524Z,993.31
2018-04-30T07:59:57.516Z,993.33
2018-04-30T08:00:57.526Z,993.37
2018-04-30T08:01:57.916Z,993.40
2018-04-30T08:02:57.645Z,993.43
2018-04-30T08:03:57.550Z,993.48
2018-04-30T08:04:57.557Z,993.41
2018-04-30T08:05:57.566Z,993.45
2018-04-30T08:06:57.573Z,993.39
2018-04-30T08:07:57.590Z,993.38
2018-04-30T08:08:57.595Z,993.40
2018-04-30T08:09:57.603Z,993.43
2018-04-30T08:10:57.612Z,993.45
2018-04-30T08:11:57.619Z,993.47
2018-04-30T08:12:57.790Z,993.39
2018-04-30T08:13:57.638Z,993.40
2018-04-30T08:14:57.695Z,993.42
2018-04-30T08:15:57.657Z,993.50
2018-04-30T08:16:57.666Z,993.50
2018-04-30T08:17:57.757Z,993.54
2018-04-30T08:18:57.777Z,993.47
2018-04-30T08:19:57.698Z,993.44
2018-04-30T08:20:57.799Z,993.43
2018-04-30T08:21:57.715Z,993.43
2018-04-30T08:22:57.853Z,993.43
2018-04-30T08:23:57.774Z,993.39
2018-04-30T08:24:57.753Z,993.40
2018-04-30T08:25:57.757Z,993.38
2018-04-30T08:26:57.809Z,993.39
2018-04-30T08:27:57.776Z,993.37
2018-04-30T08:28:57.787Z,993.41
2018-04-30T08:29:57.799Z,993.35
2018-04-30T08:30:57.810Z,993.40
2018-04-30T08:31:57.826Z,993.32
2018-04-30T08:32:57.859Z,993.41
2018-04-30T08:33:57.852Z,993.42
2018-04-30T08:34:57.847Z,993.37
2018-04-30T08:35:57.864Z,993.41
2018-04-30T08:36:57.875Z,993.43
2018-04-30T08:37:58.059Z,993.42
2018-04-30T08:38:57.902Z,993.40
2018-04-30T08:39:57.907Z,993.42
2018-04-30T08:40:57.913Z,993.44
2018-04-30T08:41:57.924Z,993.22
2018-04-30T08:42:57.933Z,993.22
2018-04-30T08:43:57.942Z,993.16
2018-04-30T08:44:57.966Z,993.25
2018-04-30T08:45:57.964Z,993.21
2018-04-30T08:46:58.000Z,993.26
2018-04-30T08:47:57.986Z,993.34
2018-04-30T08:48:57.995Z,993.33
2018-04-30T08:49:58.012Z,993.48
2018-04-30T08:50:58.011Z,993.58
2018-04-30T08:51:58.203Z,993.62
2018-04-30T08:52:58.029Z,993.60
2018-04-30T08:53:58.039Z,993.51
2018-04-30T08:54:58.061Z,993.45
2018-04-30T08:55:58.054Z,993.38
2018-04-30T08:56:58.065Z,993.37
2018-04-30T08:57:58.076Z,993.36
2018-04-30T08:58:58.091Z,993.41
2018-04-30T08:59:58.097Z,993.39
2018-04-30T09:00:58.098Z,993.46
2018-04-30T09:01:58.163Z,993.39
2018-04-30T09:02:58.113Z,993.43
2018-04-30T09:03:58.126Z,993.43
2018-04-30T09:04:58.131Z,993.37
2018-04-30T09:05:58.141Z,993.40
2018-04-30T09:06:58.144Z,993.38
2018-04-30T09:07:58.188Z,993.43
2018-04-30T09:08:58.163Z,993.40
2018-04-30T09:09:58.239Z,993.43
2018-04-30T09:10:58.217Z,993.45
2018-04-30T09:11:58.181Z,993.39
2018-04-30T09:12:58.191Z,993.40
2018-04-30T09:13:58.198Z,993.35
2018-04-30T09:14:58.209Z,993.39
2018-04-30T09:15:58.209Z,993.44
2018-04-30T09:16:58.217Z,993.45
2018-04-30T09:17:58.227Z,993.47
2018-04-30T09:18:58.230Z,993.49
2018-04-30T09:19:58.236Z,993.47
2018-04-30T09:20:58.243Z,993.43
2018-04-30T09:21:58.249Z,993.45
2018-04-30T09:22:58.256Z,993.42
2018-04-30T09:23:58.263Z,993.43
2018-04-30T09:24:58.269Z,993.40
2018-04-30T09:25:58.275Z,993.38
2018-04-30T09:26:58.286Z,993.37
2018-04-30T09:27:58.296Z,993.48
2018-04-30T09:28:58.375Z,993.49
2018-04-30T09:29:58.300Z,993.46
2018-04-30T09:30:58.306Z,993.46
2018-04-30T09:31:58.312Z,993.49
2018-04-30T09:32:58.319Z,993.51
2018-04-30T09:33:58.325Z,993.51
2018-04-30T09:34:58.392Z,993.52
2018-04-30T09:35:58.339Z,993.46
2018-04-30T09:36:58.345Z,993.56
2018-04-30T09:37:58.352Z,993.51
2018-04-30T09:38:58.358Z,993.49
2018-04-30T09:39:58.364Z,993.52
2018-04-30T09:40:58.373Z,993.60
2018-04-30T09:41:58.374Z,993.49
2018-04-30T09:42:58.379Z,993.60
2018-04-30T09:43:58.387Z,993.57
2018-04-30T09:44:58.404Z,993.56
2018-04-30T09:45:58.398Z,993.55
2018-04-30T09:46:58.406Z,993.59
2018-04-30T09:47:58.410Z,993.54
2018-04-30T09:48:58.417Z,993.59
2018-04-30T09:49:58.423Z,993.60
2018-04-30T09:50:58.428Z,993.63
2018-04-30T09:51:58.440Z,993.71
2018-04-30T09:52:58.440Z,993.77
2018-04-30T09:53:58.446Z,993.75
2018-04-30T09:54:58.452Z,993.76
2018-04-30T09:55:58.456Z,993.73
2018-04-30T09:56:58.464Z,993.77
2018-04-30T09:57:58.546Z,993.74
2018-04-30T09:58:58.473Z,993.79
2018-04-30T09:59:58.482Z,993.86
2018-04-30T10:00:58.486Z,993.81
2018-04-30T10:01:58.492Z,993.87
2018-04-30T10:02:58.498Z,993.86
2018-04-30T10:03:58.505Z,993.92
2018-04-30T10:04:58.592Z,993.91
2018-04-30T10:05:58.518Z,993.89
2018-04-30T10:06:58.522Z,993.93
2018-04-30T10:07:58.529Z,993.91
2018-04-30T10:08:58.534Z,994.00
2018-04-30T10:09:58.542Z,994.02
2018-04-30T10:10:58.546Z,994.09
2018-04-30T10:11:58.554Z,994.10
2018-04-30T10:12:58.559Z,994.07
2018-04-30T10:13:58.601Z,994.10
2018-04-30T10:14:58.752Z,994.13
2018-04-30T10:15:58.640Z,994.17
2018-04-30T10:16:58.725Z,994.21
2018-04-30T10:17:59.551Z,994.26
2018-04-30T10:18:58.893Z,994.22
2018-04-30T10:19:58.613Z,994.26
2018-04-30T10:20:58.615Z,994.25
2018-04-30T10:21:58.614Z,994.34
2018-04-30T10:22:58.624Z,994.32
2018-04-30T10:23:58.771Z,994.29
2018-04-30T10:24:58.638Z,994.36
2018-04-30T10:25:58.653Z,994.35
2018-04-30T10:26:58.911Z,994.45
2018-04-30T10:27:58.721Z,994.50
2018-04-30T10:28:58.715Z,994.46
2018-04-30T10:29:58.852Z,994.46
2018-04-30T10:30:58.673Z,994.54
2018-04-30T10:31:58.690Z,994.58
2018-04-30T10:32:58.808Z,994.56
2018-04-30T10:33:58.727Z,994.58
2018-04-30T10:34:58.724Z,994.69
2018-04-30T10:35:59.142Z,994.70
2018-04-30T10:36:58.701Z,994.69
2018-04-30T10:37:58.748Z,994.83
2018-04-30T10:38:58.938Z,994.84
2018-04-30T10:39:58.719Z,994.79
2018-04-30T10:40:58.744Z,994.84
2018-04-30T10:41:58.727Z,994.87
2018-04-30T10:42:58.805Z,994.87
2018-04-30T10:43:58.758Z,994.87
2018-04-30T10:44:58.756Z,994.97
2018-04-30T10:45:58.769Z,995.03
2018-04-30T10:46:58.762Z,994.97
2018-04-30T10:47:58.777Z,995.04
2018-04-30T10:48:58.851Z,995.10
2018-04-30T10:49:58.778Z,995.08
2018-04-30T10:50:58.805Z,995.10
2018-04-30T10:51:58.793Z,995.17
2018-04-30T10:52:58.801Z,995.22
2018-04-30T10:53:58.807Z,995.33
2018-04-30T10:54:58.813Z,995.36
2018-04-30T10:55:58.816Z,995.31
2018-04-30T10:56:58.821Z,995.36
2018-04-30T10:57:58.827Z,995.37
2018-04-30T10:58:58.832Z,995.38
2018-04-30T10:59:58.841Z,995.33
2018-04-30T11:00:58.843Z,995.47
2018-04-30T11:01:58.851Z,995.53
2018-04-30T11:02:58.857Z,995.51
2018-04-30T11:03:58.864Z,995.58
2018-04-30T11:04:58.868Z,995.51
2018-04-30T11:05:58.872Z,995.63
2018-04-30T11:06:58.883Z,995.71
2018-04-30T11:07:58.890Z,995.62
2018-04-30T11:08:58.890Z,995.68
2018-04-30T11:09:58.902Z,995.73
2018-04-30T11:10:58.901Z,995.74
2018-04-30T11:11:58.908Z,995.72
2018-04-30T11:12:58.920Z,995.81
2018-04-30T11:13:58.919Z,995.80
2018-04-30T11:14:58.923Z,995.86
2018-04-30T11:15:58.929Z,995.89
2018-04-30T11:16:58.935Z,995.96
2018-04-30T11:17:58.939Z,995.96
2018-04-30T11:18:58.945Z,996.05
2018-04-30T11:19:58.952Z,996.10
2018-04-30T11:20:58.956Z,996.06
2018-04-30T11:21:58.961Z,996.06
2018-04-30T11:22:58.966Z,995.99
2018-04-30T11:23:58.967Z,996.02
2018-04-30T11:24:59.043Z,996.04
2018-04-30T11:25:58.984Z,996.01
2018-04-30T11:26:58.988Z,996.12
2018-04-30T11:27:58.994Z,996.09
2018-04-30T11:28:58.999Z,996.05
2018-04-30T11:29:59.005Z,996.10
2018-04-30T11:30:59.015Z,996.08
2018-04-30T11:31:59.013Z,996.11
2018-04-30T11:32:59.018Z,996.10
2018-04-30T11:33:59.039Z,996.17
2018-04-30T11:34:59.029Z,996.28
2018-04-30T11:35:59.035Z,996.26
2018-04-30T11:36:59.041Z,996.27
2018-04-30T11:37:59.042Z,996.31
2018-04-30T11:38:59.048Z,996.30
2018-04-30T11:39:59.194Z,996.30
2018-04-30T11:40:59.068Z,996.35
2018-04-30T11:41:59.090Z,996.36
2018-04-30T11:42:59.066Z,996.39
2018-04-30T11:43:59.072Z,996.40
2018-04-30T11:44:59.093Z,996.44
2018-04-30T11:45:59.155Z,996.41
2018-04-30T11:46:59.087Z,996.34
2018-04-30T11:47:59.116Z,996.43
2018-04-30T11:48:59.149Z,996.44
2018-04-30T11:49:59.099Z,996.49
2018-04-30T11:50:59.176Z,996.44
2018-04-30T11:51:59.235Z,996.47
2018-04-30T11:52:59.116Z,996.53
2018-04-30T11:53:59.113Z,996.48
2018-04-30T11:54:59.116Z,996.53
2018-04-30T11:55:59.121Z,996.55
2018-04-30T11:56:59.128Z,996.52
2018-04-30T11:57:59.131Z,996.56
2018-04-30T11:58:59.134Z,996.58
2018-04-30T11:59:59.142Z,996.64
2018-04-30T12:00:59.231Z,996.65
2018-04-30T12:01:59.150Z,996.65
2018-04-30T12:02:59.151Z,996.74
2018-04-30T12:03:59.206Z,996.81
2018-04-30T12:04:59.288Z,996.78
2018-04-30T12:05:59.161Z,996.74
2018-04-30T12:06:59.234Z,996.75
2018-04-30T12:07:59.178Z,996.74
2018-04-30T12:08:59.174Z,996.73
2018-04-30T12:09:59.178Z,996.80
2018-04-30T12:10:59.464Z,996.74
2018-04-30T12:11:59.273Z,996.84
2018-04-30T12:12:59.189Z,996.82
2018-04-30T12:13:59.193Z,996.86
2018-04-30T12:14:59.310Z,996.91
2018-04-30T12:15:59.294Z,996.84
2018-04-30T12:16:59.207Z,996.93
2018-04-30T12:17:59.212Z,996.97
2018-04-30T12:18:59.212Z,997.00
2018-04-30T12:19:59.215Z,996.96
2018-04-30T12:20:59.221Z,997.02
2018-04-30T12:21:59.232Z,997.00
2018-04-30T12:22:59.249Z,996.99
2018-04-30T12:23:59.232Z,996.99
2018-04-30T12:24:59.239Z,997.00
2018-04-30T12:25:59.246Z,996.89
2018-04-30T12:26:59.246Z,996.89
2018-04-30T12:27:59.250Z,996.87
2018-04-30T12:28:59.251Z,996.88